Time;durP1;ratioP1;P1;durP2;ratioP2;P2;SDS_P1;SDS_P2;PMS_P1;PMS_P2;Temp;Humidity;BMP_temperature;BMP_pressure;BME280_temperature;BME280_humidity;BME280_pressure;Samples;Min_cycle;Max_cycle;Signal;HPM_P1;HPM_P2
2021/03/13 00:02:19;;;;;;;2.70;0.70;;;;;;;;;;5028283;28;20068;-84
2021/03/13 00:04:45;;;;;;;4.70;0.82;;;;;;;;;;5021839;28;20049;-84
2021/03/13 00:07:11;;;;;;;2.80;0.65;;;;;;;;;;5035261;28;20057;-85
2021/03/13 00:09:37;;;;;;;2.42;1.00;;;;;;;;;;5007135;28;20057;-84
2021/03/13 00:12:04;;;;;;;3.13;0.90;;;;;;;;;;5017296;28;20050;-84
2021/03/13 00:14:30;;;;;;;3.45;0.93;;;;;;;;;;5028268;28;20053;-86
2021/03/13 00:16:56;;;;;;;2.53;0.88;;;;;;;;;;5011263;28;20050;-84
2021/03/13 00:19:26;;;;;;;7.90;1.15;;;;;;;;;;5016741;28;20053;-83
2021/03/13 00:21:52;;;;;;;2.88;0.90;;;;;;;;;;5023634;28;20363;-83
2021/03/13 00:24:18;;;;;;;3.42;0.90;;;;;;;;;;5026204;28;20050;-84
2021/03/13 00:26:44;;;;;;;4.43;1.25;;;;;;;;;;5022412;28;20053;-85
2021/03/13 00:29:11;;;;;;;3.08;1.17;;;;;;;;;;5026343;28;20054;-85
2021/03/13 00:31:36;;;;;;;2.83;0.82;;;;;;;;;;5016728;28;20137;-86
2021/03/13 00:34:03;;;;;;;2.33;0.63;;;;;;;;;;5015436;28;20049;-84
2021/03/13 00:36:31;;;;;;;4.13;1.10;;;;;;;;;;5008538;28;20479;-85
2021/03/13 00:38:57;;;;;;;2.97;0.90;;;;;;;;;;5017472;28;20046;-86
2021/03/13 00:41:23;;;;;;;3.13;0.82;;;;;;;;;;5018056;28;20046;-84
2021/03/13 00:43:49;;;;;;;5.22;0.90;;;;;;;;;;5033687;28;20053;-83
2021/03/13 00:46:15;;;;;;;2.83;0.65;;;;;;;;;;5018607;28;20050;-83
2021/03/13 00:48:41;;;;;;;4.28;1.58;;;;;;;;;;5017447;28;20046;-83
2021/03/13 00:51:07;;;;;;;6.13;1.10;;;;;;;;;;5017037;28;20050;-83
2021/03/13 00:53:34;;;;;;;4.90;0.65;;;;;;;;;;5016718;28;20069;-84
2021/03/13 00:56:00;;;;;;;4.13;0.90;;;;;;;;;;5018178;28;20049;-83
2021/03/13 00:58:26;;;;;;;3.40;0.90;;;;;;;;;;4983442;28;583570;-83
2021/03/13 01:00:53;;;;;;;3.33;0.90;;;;;;;;;;5030147;28;20521;-84
2021/03/13 01:03:19;;;;;;;2.70;0.80;;;;;;;;;;5017559;28;20046;-83
2021/03/13 01:05:45;;;;;;;4.85;0.98;;;;;;;;;;5017419;28;20048;-83
2021/03/13 01:08:11;;;;;;;1.55;0.80;;;;;;;;;;5019595;28;20060;-83
2021/03/13 01:10:39;;;;;;;3.70;0.65;;;;;;;;;;5018751;28;20081;-83
2021/03/13 01:13:07;;;;;;;2.80;0.85;;;;;;;;;;5016171;28;20089;-85
2021/03/13 01:15:33;;;;;;;4.88;1.15;;;;;;;;;;5001608;28;20053;-84
2021/03/13 01:18:00;;;;;;;3.03;1.05;;;;;;;;;;5018934;28;20042;-83
2021/03/13 01:20:27;;;;;;;4.03;0.95;;;;;;;;;;5017831;28;20061;-84
2021/03/13 01:22:53;;;;;;;3.47;1.00;;;;;;;;;;5006826;28;20095;-84
2021/03/13 01:25:19;;;;;;;4.07;1.00;;;;;;;;;;5038282;28;20668;-83
2021/03/13 01:27:46;;;;;;;2.20;0.60;;;;;;;;;;5038383;28;20551;-84
2021/03/13 01:30:14;;;;;;;3.47;0.82;;;;;;;;;;5003064;28;20041;-83
2021/03/13 01:32:40;;;;;;;2.10;0.80;;;;;;;;;;5027696;28;20041;-83
2021/03/13 01:35:08;;;;;;;2.45;0.90;;;;;;;;;;5028092;28;20110;-84
2021/03/13 01:37:34;;;;;;;2.15;0.52;;;;;;;;;;5018462;28;20053;-83
2021/03/13 01:40:03;;;;;;;4.03;0.85;;;;;;;;;;5024079;28;20053;-85
2021/03/13 01:42:29;;;;;;;4.60;0.85;;;;;;;;;;5036185;28;20042;-87
2021/03/13 01:44:56;;;;;;;2.50;0.95;;;;;;;;;;5047821;28;20102;-84
2021/03/13 01:47:23;;;;;;;2.60;0.88;;;;;;;;;;5039066;28;20607;-84
2021/03/13 01:49:50;;;;;;;2.00;0.70;;;;;;;;;;5019842;28;20061;-84
2021/03/13 01:52:16;;;;;;;2.50;0.90;;;;;;;;;;5018070;28;20049;-84
2021/03/13 01:54:42;;;;;;;4.70;0.88;;;;;;;;;;5020902;28;20484;-84
2021/03/13 01:57:08;;;;;;;7.50;1.27;;;;;;;;;;5035353;28;20057;-86
2021/03/13 01:59:35;;;;;;;3.75;0.90;;;;;;;;;;5037690;28;20045;-84
2021/03/13 02:02:06;;;;;;;4.47;1.08;;;;;;;;;;5025291;28;20049;-85
2021/03/13 02:04:32;;;;;;;4.55;1.20;;;;;;;;;;5036505;23;20060;-83
2021/03/13 02:07:02;;;;;;;3.30;0.93;;;;;;;;;;5017734;28;20394;-82
2021/03/13 02:09:30;;;;;;;2.88;0.80;;;;;;;;;;5017565;28;20054;-82
2021/03/13 02:12:07;;;;;;;3.92;0.80;;;;;;;;;;5017322;28;20058;-82
2021/03/13 02:14:37;;;;;;;3.38;0.90;;;;;;;;;;5018479;28;20042;-82
2021/03/13 02:17:08;;;;;;;3.20;1.25;;;;;;;;;;5017990;28;20038;-82
2021/03/13 02:19:51;;;;;;;3.63;0.82;;;;;;;;;;5000923;28;20401;-82
2021/03/13 02:22:18;;;;;;;3.90;0.80;;;;;;;;;;5017768;28;20050;-82
2021/03/13 02:25:01;;;;;;;3.15;0.98;;;;;;;;;;5018400;28;20052;-82
2021/03/13 02:27:29;;;;;;;4.85;1.17;;;;;;;;;;5018069;28;20119;-82
2021/03/13 02:29:57;;;;;;;2.08;0.80;;;;;;;;;;5000221;28;20041;-82
2021/03/13 02:32:29;;;;;;;2.80;0.80;;;;;;;;;;5017790;28;20041;-82
2021/03/13 02:34:58;;;;;;;1.83;0.80;;;;;;;;;;5017597;28;20046;-82
2021/03/13 02:37:28;;;;;;;3.38;1.00;;;;;;;;;;5018380;28;20125;-82
2021/03/13 02:39:56;;;;;;;1.90;0.88;;;;;;;;;;5018155;28;20042;-82
2021/03/13 02:42:23;;;;;;;3.60;1.08;;;;;;;;;;5000405;28;20054;-82
2021/03/13 02:44:50;;;;;;;2.45;0.77;;;;;;;;;;5018039;28;20044;-84
2021/03/13 02:47:18;;;;;;;3.83;0.80;;;;;;;;;;5021970;28;20041;-82
2021/03/13 02:49:48;;;;;;;2.97;0.82;;;;;;;;;;5022327;28;20038;-83
2021/03/13 02:52:14;;;;;;;1.55;0.68;;;;;;;;;;5022206;28;20049;-82
2021/03/13 02:54:43;;;;;;;2.97;0.80;;;;;;;;;;5004741;28;20397;-82
2021/03/13 02:57:13;;;;;;;2.65;0.73;;;;;;;;;;5021475;28;20048;-82
2021/03/13 02:59:39;;;;;;;4.15;1.08;;;;;;;;;;5022554;28;20089;-82
2021/03/13 03:02:06;;;;;;;3.28;0.80;;;;;;;;;;5003960;28;20042;-82
2021/03/13 03:04:34;;;;;;;2.40;0.80;;;;;;;;;;5003268;28;20050;-84
2021/03/13 03:07:00;;;;;;;3.65;0.60;;;;;;;;;;5003446;28;20074;-83
2021/03/13 03:09:27;;;;;;;3.00;0.95;;;;;;;;;;5004948;28;20041;-83
2021/03/13 03:11:54;;;;;;;3.25;0.77;;;;;;;;;;5027142;28;20052;-82
2021/03/13 03:14:20;;;;;;;2.63;0.60;;;;;;;;;;5020692;28;20389;-83
2021/03/13 03:16:48;;;;;;;2.92;0.80;;;;;;;;;;5021829;28;20046;-84
2021/03/13 03:19:15;;;;;;;6.10;1.20;;;;;;;;;;5020517;28;20108;-82
2021/03/13 03:21:45;;;;;;;3.35;0.70;;;;;;;;;;5036934;28;20455;-82
2021/03/13 03:24:11;;;;;;;2.78;0.80;;;;;;;;;;5041103;28;20542;-83
2021/03/13 03:26:38;;;;;;;2.78;0.75;;;;;;;;;;5025782;28;20050;-82
2021/03/13 03:29:04;;;;;;;1.60;0.65;;;;;;;;;;5021135;28;20072;-82
2021/03/13 03:31:30;;;;;;;1.85;0.85;;;;;;;;;;5019688;28;20049;-82
2021/03/13 03:33:57;;;;;;;1.98;0.80;;;;;;;;;;5022072;28;20042;-81
2021/03/13 03:36:23;;;;;;;3.40;0.93;;;;;;;;;;5038192;28;20046;-82
2021/03/13 03:38:50;;;;;;;2.15;0.98;;;;;;;;;;5039755;28;20037;-82
2021/03/13 03:41:16;;;;;;;1.60;0.70;;;;;;;;;;5005680;28;20046;-81
2021/03/13 03:43:44;;;;;;;2.75;1.00;;;;;;;;;;5020136;28;20132;-82
2021/03/13 03:46:11;;;;;;;4.40;1.10;;;;;;;;;;5019540;28;20046;-82
2021/03/13 03:48:38;;;;;;;3.60;1.10;;;;;;;;;;5019548;28;20049;-81
2021/03/13 03:51:10;;;;;;;3.75;0.85;;;;;;;;;;5025419;28;20334;-81
2021/03/13 03:53:39;;;;;;;2.13;0.93;;;;;;;;;;5034809;28;20033;-82
2021/03/13 03:56:08;;;;;;;5.43;1.30;;;;;;;;;;5028667;28;20405;-81
2021/03/13 03:58:37;;;;;;;2.60;0.95;;;;;;;;;;5019747;28;20042;-82
2021/03/13 04:01:03;;;;;;;2.72;1.20;;;;;;;;;;5021221;28;20057;-82
2021/03/13 04:03:29;;;;;;;3.55;0.80;;;;;;;;;;5018650;28;20057;-82
2021/03/13 04:05:55;;;;;;;2.53;0.75;;;;;;;;;;5019226;28;20053;-83
2021/03/13 04:08:22;;;;;;;4.50;0.90;;;;;;;;;;5019871;28;20046;-82
2021/03/13 04:10:50;;;;;;;3.65;1.05;;;;;;;;;;5018838;28;20054;-82
2021/03/13 04:13:21;;;;;;;4.40;1.08;;;;;;;;;;5029886;28;20045;-82
2021/03/13 04:15:49;;;;;;;3.35;1.10;;;;;;;;;;5029007;28;20466;-81
2021/03/13 04:18:17;;;;;;;2.08;0.93;;;;;;;;;;5020034;28;20433;-83
2021/03/13 04:20:46;;;;;;;3.80;1.20;;;;;;;;;;5020345;28;20486;-83
2021/03/13 04:23:12;;;;;;;9.77;2.65;;;;;;;;;;5019248;28;20069;-83
2021/03/13 04:25:39;;;;;;;1.58;0.80;;;;;;;;;;5018048;28;20071;-83
2021/03/13 04:28:05;;;;;;;2.00;0.80;;;;;;;;;;5019149;28;20045;-82
2021/03/13 04:30:34;;;;;;;4.00;0.77;;;;;;;;;;5013946;28;20034;-83
2021/03/13 04:33:00;;;;;;;2.13;0.80;;;;;;;;;;4998774;28;20053;-80
2021/03/13 04:35:28;;;;;;;2.45;1.00;;;;;;;;;;5010612;28;20042;-83
2021/03/13 04:37:54;;;;;;;1.83;0.70;;;;;;;;;;5037793;28;20038;-82
2021/03/13 04:40:21;;;;;;;1.77;0.75;;;;;;;;;;5036712;28;20041;-83
2021/03/13 04:42:47;;;;;;;4.50;1.20;;;;;;;;;;5018866;28;20048;-83
2021/03/13 04:45:15;;;;;;;3.05;0.80;;;;;;;;;;5018667;28;20142;-82
2021/03/13 04:47:44;;;;;;;2.42;1.48;;;;;;;;;;5018162;28;20042;-83
2021/03/13 04:50:13;;;;;;;2.28;0.95;;;;;;;;;;5022256;28;20048;-82
2021/03/13 04:52:39;;;;;;;2.40;0.73;;;;;;;;;;5037062;28;20053;-83
2021/03/13 04:55:06;;;;;;;5.82;0.90;;;;;;;;;;5023753;28;20121;-82
2021/03/13 04:57:32;;;;;;;2.22;0.70;;;;;;;;;;5017777;28;20050;-83
2021/03/13 04:59:58;;;;;;;4.38;1.10;;;;;;;;;;5018190;28;20041;-83
2021/03/13 05:02:24;;;;;;;2.25;0.77;;;;;;;;;;5027793;28;20056;-83
2021/03/13 05:04:51;;;;;;;2.90;0.90;;;;;;;;;;5038088;28;20128;-83
2021/03/13 05:07:17;;;;;;;2.40;0.93;;;;;;;;;;5018651;28;20045;-82
2021/03/13 05:09:43;;;;;;;2.15;0.70;;;;;;;;;;5000206;28;20462;-83
2021/03/13 05:12:10;;;;;;;4.93;1.00;;;;;;;;;;5009551;28;20435;-84
2021/03/13 05:14:37;;;;;;;1.63;0.70;;;;;;;;;;5033083;28;20038;-84
2021/03/13 05:17:03;;;;;;;5.90;1.35;;;;;;;;;;5000858;28;20044;-82
2021/03/13 05:19:29;;;;;;;2.45;0.90;;;;;;;;;;5018156;28;20050;-83
2021/03/13 05:21:56;;;;;;;3.72;0.90;;;;;;;;;;5018292;28;20041;-83
2021/03/13 05:24:22;;;;;;;3.55;0.80;;;;;;;;;;5018123;28;20055;-83
2021/03/13 05:26:48;;;;;;;0.65;0.50;;;;;;;;;;5001045;28;20045;-82
2021/03/13 05:29:15;;;;;;;1.83;0.82;;;;;;;;;;5000337;28;20042;-80
2021/03/13 05:31:41;;;;;;;1.50;0.70;;;;;;;;;;5001026;28;20367;-83
2021/03/13 05:34:07;;;;;;;1.65;0.70;;;;;;;;;;4992466;28;20425;-83
2021/03/13 05:36:33;;;;;;;4.03;0.95;;;;;;;;;;4989183;28;20053;-82
2021/03/13 05:39:00;;;;;;;1.30;0.50;;;;;;;;;;5012758;28;20377;-82
2021/03/13 05:41:27;;;;;;;1.15;0.63;;;;;;;;;;5018169;28;20045;-83
2021/03/13 05:43:54;;;;;;;3.60;0.98;;;;;;;;;;5012166;28;20057;-83
2021/03/13 05:46:20;;;;;;;3.33;1.10;;;;;;;;;;5012828;28;20042;-81
2021/03/13 05:48:46;;;;;;;3.25;0.80;;;;;;;;;;4991929;28;20038;-83
2021/03/13 05:51:13;;;;;;;2.67;0.90;;;;;;;;;;4982161;28;20490;-81
2021/03/13 05:53:40;;;;;;;2.47;1.02;;;;;;;;;;4981747;28;20046;-83
2021/03/13 05:56:08;;;;;;;4.45;0.88;;;;;;;;;;5013732;28;20045;-80
2021/03/13 05:58:34;;;;;;;2.35;0.80;;;;;;;;;;5001217;28;20061;-83
2021/03/13 06:01:00;;;;;;;2.40;0.68;;;;;;;;;;5017253;28;20045;-83
2021/03/13 06:03:26;;;;;;;2.50;1.00;;;;;;;;;;5036218;28;20041;-83
2021/03/13 06:05:53;;;;;;;1.98;0.80;;;;;;;;;;5015512;28;20046;-83
2021/03/13 06:08:19;;;;;;;5.30;0.60;;;;;;;;;;4998030;28;20049;-83
2021/03/13 06:10:45;;;;;;;2.25;0.90;;;;;;;;;;4997512;28;20042;-83
2021/03/13 06:13:14;;;;;;;2.20;0.70;;;;;;;;;;5015115;28;20048;-83
2021/03/13 06:15:40;;;;;;;4.82;0.80;;;;;;;;;;5017184;28;20037;-83
2021/03/13 06:18:06;;;;;;;2.92;1.20;;;;;;;;;;5027874;28;20481;-82
2021/03/13 06:20:34;;;;;;;5.50;1.10;;;;;;;;;;5021035;28;20041;-83
2021/03/13 06:23:04;;;;;;;1.23;0.60;;;;;;;;;;5038145;28;20132;-83
2021/03/13 06:25:31;;;;;;;1.73;0.85;;;;;;;;;;5035007;28;20041;-82
2021/03/13 06:28:03;;;;;;;3.58;1.05;;;;;;;;;;5017504;28;20100;-81
2021/03/13 06:30:31;;;;;;;1.55;0.60;;;;;;;;;;5013286;28;20072;-81
2021/03/13 06:32:57;;;;;;;0.98;0.57;;;;;;;;;;5032686;28;20048;-82
2021/03/13 06:35:25;;;;;;;1.85;0.80;;;;;;;;;;5017615;28;20038;-81
2021/03/13 06:37:52;;;;;;;2.53;0.65;;;;;;;;;;5020267;28;20064;-81
2021/03/13 06:40:26;;;;;;;2.30;1.10;;;;;;;;;;5026226;28;20042;-82
2021/03/13 06:42:52;;;;;;;4.85;1.10;;;;;;;;;;5016937;28;20037;-81
2021/03/13 06:45:19;;;;;;;1.92;0.82;;;;;;;;;;5017375;28;20045;-82
2021/03/13 06:47:46;;;;;;;2.63;0.70;;;;;;;;;;5032901;28;20037;-81
2021/03/13 06:50:14;;;;;;;4.07;1.15;;;;;;;;;;5037851;28;20103;-81
2021/03/13 06:52:41;;;;;;;1.60;0.60;;;;;;;;;;5034097;28;20038;-81
2021/03/13 06:55:08;;;;;;;1.77;0.80;;;;;;;;;;5017751;28;20076;-81
2021/03/13 06:57:34;;;;;;;2.38;1.00;;;;;;;;;;4999778;28;20046;-82
2021/03/13 07:00:01;;;;;;;2.45;0.80;;;;;;;;;;5031264;28;20041;-81
2021/03/13 07:02:28;;;;;;;2.80;0.68;;;;;;;;;;5000477;28;20478;-81
2021/03/13 07:05:07;;;;;;;1.58;0.80;;;;;;;;;;4999995;28;20050;-81
2021/03/13 07:07:33;;;;;;;2.10;0.57;;;;;;;;;;5025582;28;20500;-81
2021/03/13 07:10:00;;;;;;;2.45;0.70;;;;;;;;;;5036803;28;20103;-81
2021/03/13 07:12:28;;;;;;;3.13;0.90;;;;;;;;;;5036432;28;20049;-81
2021/03/13 07:14:55;;;;;;;4.03;0.82;;;;;;;;;;5036252;28;20515;-80
2021/03/13 07:17:23;;;;;;;3.67;1.45;;;;;;;;;;5024072;28;20056;-81
2021/03/13 07:19:49;;;;;;;5.07;1.40;;;;;;;;;;4999910;28;20037;-81
2021/03/13 07:22:16;;;;;;;3.40;0.90;;;;;;;;;;5035326;28;20496;-81
2021/03/13 07:24:43;;;;;;;2.97;0.88;;;;;;;;;;5036061;28;20049;-82
2021/03/13 07:27:11;;;;;;;2.92;0.65;;;;;;;;;;5018046;28;20050;-81
2021/03/13 07:29:39;;;;;;;3.42;0.60;;;;;;;;;;5036262;28;20037;-83
2021/03/13 07:32:06;;;;;;;4.25;1.05;;;;;;;;;;5038854;28;20049;-82
2021/03/13 07:34:36;;;;;;;3.08;0.63;;;;;;;;;;5039713;28;20503;-82
2021/03/13 07:37:04;;;;;;;3.95;0.82;;;;;;;;;;5005066;28;20070;-82
2021/03/13 07:39:34;;;;;;;5.18;1.50;;;;;;;;;;5014016;28;20396;-81
2021/03/13 07:42:02;;;;;;;3.95;1.60;;;;;;;;;;5040237;28;20584;-81
2021/03/13 07:44:30;;;;;;;1.83;0.80;;;;;;;;;;5038006;28;20042;-82
2021/03/13 07:46:57;;;;;;;1.45;0.75;;;;;;;;;;5017065;28;20043;-81
2021/03/13 07:49:24;;;;;;;3.97;1.23;;;;;;;;;;5036253;28;20501;-82
2021/03/13 07:51:50;;;;;;;7.32;2.15;;;;;;;;;;5034422;28;20041;-83
2021/03/13 07:54:17;;;;;;;1.85;0.55;;;;;;;;;;4997265;28;20045;-82
2021/03/13 07:56:44;;;;;;;2.90;0.70;;;;;;;;;;5039691;28;20046;-82
2021/03/13 07:59:10;;;;;;;3.13;1.25;;;;;;;;;;5037716;28;20531;-83
2021/03/13 08:01:47;;;;;;;7.60;2.50;;;;;;;;;;5012300;28;20049;-82
2021/03/13 08:04:46;;;;;;;6.75;2.85;;;;;;;;;;5034362;28;20050;-83
2021/03/13 08:07:12;;;;;;;4.28;1.40;;;;;;;;;;5020106;28;20041;-82
2021/03/13 08:09:41;;;;;;;7.28;2.10;;;;;;;;;;5027225;28;20149;-83
2021/03/13 08:12:08;;;;;;;5.22;2.28;;;;;;;;;;5025780;28;20148;-81
2021/03/13 08:14:35;;;;;;;5.60;2.83;;;;;;;;;;5015906;28;20045;-82
2021/03/13 08:17:06;;;;;;;5.45;1.33;;;;;;;;;;5021743;28;20045;-83
2021/03/13 08:19:37;;;;;;;1.30;0.80;;;;;;;;;;5035100;28;20482;-82
2021/03/13 08:22:15;;;;;;;2.47;0.75;;;;;;;;;;5028556;28;20047;-81
2021/03/13 08:24:46;;;;;;;3.80;0.93;;;;;;;;;;5024651;28;20496;-82
2021/03/13 08:27:17;;;;;;;2.50;0.82;;;;;;;;;;5026183;28;20034;-82
2021/03/13 08:29:53;;;;;;;1.98;0.63;;;;;;;;;;5028432;28;20516;-83
2021/03/13 08:33:02;;;;;;;2.50;0.70;;;;;;;;;;5038536;28;20473;-82
2021/03/13 08:35:49;;;;;;;3.03;0.60;;;;;;;;;;5034450;28;20038;-82
2021/03/13 08:38:18;;;;;;;2.75;0.85;;;;;;;;;;5022844;28;20076;-81
2021/03/13 08:40:50;;;;;;;3.90;0.93;;;;;;;;;;5024576;28;20049;-82
2021/03/13 08:43:40;;;;;;;4.55;1.17;;;;;;;;;;5033065;28;20034;-82
2021/03/13 08:46:39;;;;;;;2.42;0.95;;;;;;;;;;5020043;28;20038;-81
2021/03/13 08:49:06;;;;;;;2.40;0.93;;;;;;;;;;5026883;28;20045;-83
2021/03/13 08:51:32;;;;;;;3.58;1.00;;;;;;;;;;5034995;28;20492;-82
2021/03/13 08:53:58;;;;;;;3.72;0.68;;;;;;;;;;5029903;28;20056;-81
2021/03/13 08:56:47;;;;;;;2.92;0.73;;;;;;;;;;5039022;28;20458;-82
2021/03/13 08:59:16;;;;;;;1.95;0.70;;;;;;;;;;5001303;28;20489;-83
2021/03/13 09:01:44;;;;;;;4.88;1.02;;;;;;;;;;5027506;28;20048;-83
2021/03/13 09:04:10;;;;;;;1.58;0.80;;;;;;;;;;5039134;28;20045;-82
2021/03/13 09:06:40;;;;;;;3.67;1.30;;;;;;;;;;5027924;28;20456;-81
2021/03/13 09:09:15;;;;;;;3.10;0.77;;;;;;;;;;5040250;28;20042;-81
2021/03/13 09:11:41;;;;;;;3.60;1.03;;;;;;;;;;5023137;28;20046;-82
2021/03/13 09:14:08;;;;;;;2.90;0.70;;;;;;;;;;5029725;28;20292;-81
2021/03/13 09:16:36;;;;;;;3.60;0.82;;;;;;;;;;5009138;28;20047;-80
2021/03/13 09:19:04;;;;;;;3.45;0.80;;;;;;;;;;5029235;28;20042;-81
2021/03/13 09:21:44;;;;;;;2.78;0.90;;;;;;;;;;5000918;28;20479;-81
2021/03/13 09:24:11;;;;;;;3.17;1.30;;;;;;;;;;5020472;28;20038;-82
2021/03/13 09:26:38;;;;;;;3.38;0.98;;;;;;;;;;5000414;28;20046;-82
2021/03/13 09:29:04;;;;;;;2.15;0.98;;;;;;;;;;5005542;28;20055;-81
2021/03/13 09:31:30;;;;;;;1.75;0.80;;;;;;;;;;5030152;28;20045;-81
2021/03/13 09:34:12;;;;;;;2.22;0.80;;;;;;;;;;5037069;28;20409;-80
2021/03/13 09:36:38;;;;;;;1.67;0.95;;;;;;;;;;5037493;28;20073;-82
2021/03/13 09:39:05;;;;;;;6.18;0.80;;;;;;;;;;5031966;28;20142;-81
2021/03/13 09:41:31;;;;;;;2.40;0.75;;;;;;;;;;5013420;28;20063;-82
2021/03/13 09:43:57;;;;;;;4.05;0.60;;;;;;;;;;5038671;28;20045;-80
2021/03/13 09:46:24;;;;;;;0.60;0.40;;;;;;;;;;5026659;28;20056;-82
2021/03/13 09:48:51;;;;;;;3.42;0.80;;;;;;;;;;5036292;28;20055;-83
2021/03/13 09:51:18;;;;;;;2.10;0.65;;;;;;;;;;5020550;28;20104;-82
2021/03/13 09:53:44;;;;;;;3.55;1.50;;;;;;;;;;5027305;28;20100;-82
2021/03/13 09:56:10;;;;;;;2.67;1.05;;;;;;;;;;5008791;28;20050;-81
2021/03/13 09:58:36;;;;;;;2.95;0.98;;;;;;;;;;5023039;28;20037;-79
2021/03/13 10:01:02;;;;;;;1.83;0.60;;;;;;;;;;5032818;28;20111;-80
2021/03/13 10:03:28;;;;;;;1.23;0.50;;;;;;;;;;5038272;28;20485;-80
2021/03/13 10:05:56;;;;;;;3.63;1.00;;;;;;;;;;5021109;28;20038;-80
2021/03/13 10:08:32;;;;;;;2.75;0.70;;;;;;;;;;5028849;28;20049;-81
2021/03/13 10:11:01;;;;;;;2.25;0.60;;;;;;;;;;5022759;28;20042;-81
2021/03/13 10:13:29;;;;;;;0.75;0.40;;;;;;;;;;5022490;28;20072;-80
2021/03/13 10:15:55;;;;;;;1.13;0.60;;;;;;;;;;5022456;28;20048;-80
2021/03/13 10:18:22;;;;;;;1.38;0.40;;;;;;;;;;4997028;28;20093;-80
2021/03/13 10:20:56;;;;;;;1.90;0.80;;;;;;;;;;5020401;28;20088;-81
2021/03/13 10:23:25;;;;;;;1.10;0.47;;;;;;;;;;5011517;28;20053;-80
2021/03/13 10:25:56;;;;;;;2.40;0.95;;;;;;;;;;5010898;28;20101;-81
2021/03/13 10:28:27;;;;;;;3.35;0.57;;;;;;;;;;5028509;28;20041;-82
2021/03/13 10:31:03;;;;;;;1.48;0.50;;;;;;;;;;5022395;28;20065;-81
2021/03/13 10:33:29;;;;;;;;;;;;;;;;;;5029321;28;20042;-81
2021/03/13 10:35:56;;;;;;;0.82;0.40;;;;;;;;;;5024036;28;19917;-84
2021/03/13 10:38:23;;;;;;;2.00;0.63;;;;;;;;;;5027791;28;20033;-83
2021/03/13 10:40:51;;;;;;;2.58;0.60;;;;;;;;;;5007014;28;20053;-83
2021/03/13 10:43:25;;;;;;;3.13;0.90;;;;;;;;;;5031326;28;20049;-83
2021/03/13 10:46:10;;;;;;;1.58;0.50;;;;;;;;;;5009394;28;20068;-82
2021/03/13 10:48:38;;;;;;;1.20;0.60;;;;;;;;;;5019801;28;20183;-81
2021/03/13 10:51:05;;;;;;;1.73;0.68;;;;;;;;;;5005509;28;20557;-81
2021/03/13 10:53:41;;;;;;;1.52;0.40;;;;;;;;;;5008295;28;20085;-81
2021/03/13 10:56:08;;;;;;;3.72;0.38;;;;;;;;;;5031928;28;20096;-80
2021/03/13 10:58:35;;;;;;;1.40;0.47;;;;;;;;;;5029002;28;20085;-81
2021/03/13 11:01:04;;;;;;;2.22;0.30;;;;;;;;;;5030345;28;20419;-81
2021/03/13 11:03:30;;;;;;;0.88;0.40;;;;;;;;;;5033480;28;20320;-81
2021/03/13 11:05:56;;;;;;;2.97;0.82;;;;;;;;;;5032642;28;20041;-82
2021/03/13 11:08:25;;;;;;;2.47;1.38;;;;;;;;;;5033274;28;20052;-83
2021/03/13 11:10:54;;;;;;;5.80;1.92;;;;;;;;;;5009486;28;20767;-82
2021/03/13 11:13:21;;;;;;;3.70;1.20;;;;;;;;;;5028894;28;20095;-82
2021/03/13 11:15:47;;;;;;;2.35;0.70;;;;;;;;;;5030268;28;20038;-82
2021/03/13 11:18:13;;;;;;;3.88;1.85;;;;;;;;;;5012362;28;20045;-81
2021/03/13 11:20:41;;;;;;;3.67;1.20;;;;;;;;;;5023689;28;20104;-80
2021/03/13 11:23:07;;;;;;;3.38;0.82;;;;;;;;;;5023120;28;20133;-82
2021/03/13 11:25:35;;;;;;;1.95;0.35;;;;;;;;;;5026597;28;20053;-82
2021/03/13 11:28:02;;;;;;;1.67;0.60;;;;;;;;;;5000831;28;20045;-80
2021/03/13 11:30:29;;;;;;;2.47;0.35;;;;;;;;;;5041573;28;20136;-83
2021/03/13 11:32:55;;;;;;;1.08;0.45;;;;;;;;;;5039618;28;20375;-79
2021/03/13 11:35:23;;;;;;;7.10;2.53;;;;;;;;;;5039565;28;20057;-82
2021/03/13 11:37:49;;;;;;;8.10;4.72;;;;;;;;;;5028911;28;20731;-81
2021/03/13 11:40:16;;;;;;;9.30;4.65;;;;;;;;;;5034966;28;20046;-82
2021/03/13 11:42:42;;;;;;;4.15;2.25;;;;;;;;;;5027954;28;20037;-81
2021/03/13 11:45:12;;;;;;;3.95;0.90;;;;;;;;;;5009268;28;20042;-81
2021/03/13 11:47:40;;;;;;;18.90;8.10;;;;;;;;;;5036480;28;20071;-82
2021/03/13 11:50:09;;;;;;;5.35;2.75;;;;;;;;;;5026384;28;20077;-83
2021/03/13 11:52:35;;;;;;;12.23;4.97;;;;;;;;;;5041051;28;20076;-81
2021/03/13 11:55:02;;;;;;;1.17;0.68;;;;;;;;;;5021003;28;20045;-81
2021/03/13 11:57:28;;;;;;;1.95;0.70;;;;;;;;;;5020913;28;20049;-79
2021/03/13 11:59:54;;;;;;;0.73;0.40;;;;;;;;;;5023928;28;20141;-83
2021/03/13 12:02:21;;;;;;;1.88;0.32;;;;;;;;;;5004453;28;20037;-82
2021/03/13 12:04:48;;;;;;;2.55;0.80;;;;;;;;;;5008236;28;20049;-82
2021/03/13 12:07:14;;;;;;;2.15;0.50;;;;;;;;;;5035990;28;20049;-83
2021/03/13 12:09:40;;;;;;;1.52;0.45;;;;;;;;;;5030825;28;20092;-81
2021/03/13 12:12:10;;;;;;;1.15;0.38;;;;;;;;;;5040793;28;20045;-80
2021/03/13 12:14:36;;;;;;;3.45;0.80;;;;;;;;;;5029027;28;20037;-81
2021/03/13 12:17:02;;;;;;;1.35;0.45;;;;;;;;;;4988336;28;20398;-80
2021/03/13 12:19:29;;;;;;;0.20;0.20;;;;;;;;;;5030261;28;20053;-80
2021/03/13 12:21:55;;;;;;;0.55;0.30;;;;;;;;;;5032047;28;20068;-80
2021/03/13 12:24:21;;;;;;;1.65;0.60;;;;;;;;;;5038106;28;20473;-81
2021/03/13 12:26:48;;;;;;;1.35;0.40;;;;;;;;;;5028837;28;20041;-80
2021/03/13 12:29:14;;;;;;;1.73;0.52;;;;;;;;;;5028443;28;20045;-80
2021/03/13 12:31:40;;;;;;;1.65;0.60;;;;;;;;;;5027542;28;20042;-80
2021/03/13 12:34:06;;;;;;;0.30;0.20;;;;;;;;;;5037394;28;20080;-81
2021/03/13 12:36:33;;;;;;;0.35;0.17;;;;;;;;;;5024043;28;20092;-82
2021/03/13 12:38:59;;;;;;;1.77;0.75;;;;;;;;;;5021708;28;20042;-80
2021/03/13 12:41:25;;;;;;;1.15;0.20;;;;;;;;;;5021815;28;20042;-81
2021/03/13 12:43:51;;;;;;;1.45;0.35;;;;;;;;;;5028248;28;20064;-82
2021/03/13 12:46:18;;;;;;;1.30;0.40;;;;;;;;;;5034468;28;20057;-81
2021/03/13 12:48:45;;;;;;;1.20;0.35;;;;;;;;;;5023562;28;20125;-79
2021/03/13 12:51:11;;;;;;;1.10;0.32;;;;;;;;;;5033412;28;20052;-80
2021/03/13 12:53:38;;;;;;;1.40;0.40;;;;;;;;;;5040464;28;20056;-79
2021/03/13 12:56:05;;;;;;;0.98;0.45;;;;;;;;;;5026169;28;20057;-79
2021/03/13 12:58:31;;;;;;;0.57;0.30;;;;;;;;;;5034154;28;20046;-82
2021/03/13 13:00:57;;;;;;;4.00;0.60;;;;;;;;;;5031408;28;20069;-81
2021/03/13 13:03:23;;;;;;;1.77;0.57;;;;;;;;;;5037170;28;20076;-82
2021/03/13 13:05:53;;;;;;;1.98;0.40;;;;;;;;;;5040360;28;20080;-82
2021/03/13 13:08:19;;;;;;;1.20;0.30;;;;;;;;;;5040606;28;20045;-82
2021/03/13 13:10:47;;;;;;;2.05;0.40;;;;;;;;;;5025626;28;20080;-80
2021/03/13 13:13:13;;;;;;;0.65;0.40;;;;;;;;;;5019821;28;20479;-80
2021/03/13 13:15:40;;;;;;;1.73;0.63;;;;;;;;;;5033408;28;20043;-81
2021/03/13 13:18:06;;;;;;;1.17;0.30;;;;;;;;;;5037372;28;20054;-81
2021/03/13 13:20:32;;;;;;;0.63;0.30;;;;;;;;;;5018403;28;20053;-80
2021/03/13 13:22:58;;;;;;;2.35;0.50;;;;;;;;;;5019431;28;20680;-80
2021/03/13 13:25:24;;;;;;;3.40;0.47;;;;;;;;;;5030147;28;20045;-80
2021/03/13 13:27:51;;;;;;;2.33;0.85;;;;;;;;;;5039144;28;20091;-79
2021/03/13 13:30:18;;;;;;;2.05;0.70;;;;;;;;;;5031410;28;20397;-80
2021/03/13 13:32:44;;;;;;;1.63;0.68;;;;;;;;;;5008729;28;20047;-79
2021/03/13 13:35:12;;;;;;;0.93;0.38;;;;;;;;;;5032564;28;20053;-80
2021/03/13 13:37:37;;;;;;;1.30;0.70;;;;;;;;;;5024052;28;20038;-80
2021/03/13 13:40:05;;;;;;;0.95;0.40;;;;;;;;;;5023376;28;20046;-80
2021/03/13 13:42:31;;;;;;;1.90;0.45;;;;;;;;;;5031121;28;20037;-80
2021/03/13 13:44:58;;;;;;;1.52;0.70;;;;;;;;;;5024027;28;20091;-81
2021/03/13 13:47:24;;;;;;;3.30;0.65;;;;;;;;;;5025988;28;20097;-79
2021/03/13 13:49:50;;;;;;;1.13;0.40;;;;;;;;;;5024863;28;20037;-80
2021/03/13 13:52:16;;;;;;;2.08;0.70;;;;;;;;;;5020898;28;20058;-80
2021/03/13 13:54:42;;;;;;;2.47;0.63;;;;;;;;;;5030963;28;20041;-80
2021/03/13 13:57:08;;;;;;;2.38;0.57;;;;;;;;;;5034271;28;20037;-80
2021/03/13 13:59:34;;;;;;;3.05;0.60;;;;;;;;;;5037190;28;20420;-82
2021/03/13 14:02:01;;;;;;;1.10;0.50;;;;;;;;;;5022914;28;20041;-79
2021/03/13 14:04:27;;;;;;;1.35;0.47;;;;;;;;;;5021947;28;20053;-80
2021/03/13 14:06:54;;;;;;;4.03;0.50;;;;;;;;;;5019618;28;20037;-80
2021/03/13 14:09:20;;;;;;;2.22;0.50;;;;;;;;;;5032787;28;20046;-80
2021/03/13 14:11:46;;;;;;;0.73;0.60;;;;;;;;;;5034705;28;20045;-81
2021/03/13 14:14:12;;;;;;;3.28;0.60;;;;;;;;;;5037825;28;20045;-80
2021/03/13 14:16:38;;;;;;;0.55;0.40;;;;;;;;;;5006741;28;20064;-80
2021/03/13 14:19:05;;;;;;;1.75;0.70;;;;;;;;;;5025939;28;20049;-81
2021/03/13 14:21:31;;;;;;;3.30;0.47;;;;;;;;;;5032703;28;20064;-79
2021/03/13 14:23:57;;;;;;;1.85;0.40;;;;;;;;;;5004397;28;20038;-78
2021/03/13 14:26:24;;;;;;;2.42;0.50;;;;;;;;;;5024998;28;20052;-79
2021/03/13 14:28:50;;;;;;;1.30;0.50;;;;;;;;;;5035140;28;20041;-79
2021/03/13 14:31:17;;;;;;;1.35;0.55;;;;;;;;;;5032216;28;20109;-79
2021/03/13 14:33:43;;;;;;;1.13;0.32;;;;;;;;;;5035551;28;20060;-80
2021/03/13 14:36:10;;;;;;;1.48;0.65;;;;;;;;;;5032530;28;20072;-79
2021/03/13 14:38:36;;;;;;;1.30;0.63;;;;;;;;;;5035750;28;20091;-80
2021/03/13 14:41:03;;;;;;;2.28;0.52;;;;;;;;;;5029539;28;20462;-79
2021/03/13 14:43:29;;;;;;;4.03;0.65;;;;;;;;;;5032842;28;20041;-82
2021/03/13 14:45:55;;;;;;;2.28;0.50;;;;;;;;;;5019519;28;20386;-81
2021/03/13 14:48:20;;;;;;;1.05;0.22;;;;;;;;;;5032450;28;20041;-80